sensor_id;sensor_type;location;lat;lon;timestamp;temperature;humidity
5382;DHT22;2714;49.852;6.564;2023-03-29T00:00:04;6.70;99.90
5382;DHT22;2714;49.852;6.564;2023-03-29T00:04:08;6.70;99.90
5382;DHT22;2714;49.852;6.564;2023-03-29T00:08:09;6.70;99.90
5382;DHT22;2714;49.852;6.564;2023-03-29T00:12:13;6.70;99.90
5382;DHT22;2714;49.852;6.564;2023-03-29T00:16:14;6.50;99.90
5382;DHT22;2714;49.852;6.564;2023-03-29T00:20:15;6.60;99.90
5382;DHT22;2714;49.852;6.564;2023-03-29T00:24:16;6.60;99.90
5382;DHT22;2714;49.852;6.564;2023-03-29T00:28:17;6.50;99.90
5382;DHT22;2714;49.852;6.564;2023-03-29T00:32:18;6.50;99.90
5382;DHT22;2714;49.852;6.564;2023-03-29T00:36:18;6.50;99.90
5382;DHT22;2714;49.852;6.564;2023-03-29T00:40:19;6.70;99.90
5382;DHT22;2714;49.852;6.564;2023-03-29T00:48:55;6.80;99.90
5382;DHT22;2714;49.852;6.564;2023-03-29T00:53:12;6.70;99.90
5382;DHT22;2714;49.852;6.564;2023-03-29T00:57:14;6.60;99.90
5382;DHT22;2714;49.852;6.564;2023-03-29T01:01:31;6.50;99.90
5382;DHT22;2714;49.852;6.564;2023-03-29T01:05:39;6.40;99.90
5382;DHT22;2714;49.852;6.564;2023-03-29T01:09:43;6.40;99.90
5382;DHT22;2714;49.852;6.564;2023-03-29T01:14:00;6.40;99.90
5382;DHT22;2714;49.852;6.564;2023-03-29T01:18:03;6.30;99.90
5382;DHT22;2714;49.852;6.564;2023-03-29T01:26:22;6.30;99.90
5382;DHT22;2714;49.852;6.564;2023-03-29T01:30:41;6.30;99.90
5382;DHT22;2714;49.852;6.564;2023-03-29T01:34:50;6.30;99.90
5382;DHT22;2714;49.852;6.564;2023-03-29T01:39:02;6.30;99.90
5382;DHT22;2714;49.852;6.564;2023-03-29T01:43:17;6.10;99.90
5382;DHT22;2714;49.852;6.564;2023-03-29T01:47:53;6.20;99.90
5382;DHT22;2714;49.852;6.564;2023-03-29T01:52:02;6.20;99.90
5382;DHT22;2714;49.852;6.564;2023-03-29T01:56:09;6.20;99.90
5382;DHT22;2714;49.852;6.564;2023-03-29T02:00:14;6.20;99.90
5382;DHT22;2714;49.852;6.564;2023-03-29T02:04:19;6.10;99.90
5382;DHT22;2714;49.852;6.564;2023-03-29T02:08:22;6.10;99.90
5382;DHT22;2714;49.852;6.564;2023-03-29T02:12:24;6.20;99.90
5382;DHT22;2714;49.852;6.564;2023-03-29T02:16:25;6.20;99.90
5382;DHT22;2714;49.852;6.564;2023-03-29T02:20:38;6.20;99.90
5382;DHT22;2714;49.852;6.564;2023-03-29T02:24:41;6.20;99.90
5382;DHT22;2714;49.852;6.564;2023-03-29T02:28:44;6.20;99.90
5382;DHT22;2714;49.852;6.564;2023-03-29T02:32:49;6.40;99.90
5382;DHT22;2714;49.852;6.564;2023-03-29T02:36:57;6.30;99.90
5382;DHT22;2714;49.852;6.564;2023-03-29T02:41:00;6.40;99.90
5382;DHT22;2714;49.852;6.564;2023-03-29T02:45:01;6.30;99.90
5382;DHT22;2714;49.852;6.564;2023-03-29T02:49:03;6.20;99.90
5382;DHT22;2714;49.852;6.564;2023-03-29T02:53:14;6.20;99.90
5382;DHT22;2714;49.852;6.564;2023-03-29T02:57:16;6.30;99.90
5382;DHT22;2714;49.852;6.564;2023-03-29T03:01:17;6.40;99.90
5382;DHT22;2714;49.852;6.564;2023-03-29T03:05:19;6.20;99.90
5382;DHT22;2714;49.852;6.564;2023-03-29T03:09:20;6.20;99.90
5382;DHT22;2714;49.852;6.564;2023-03-29T03:13:21;6.20;99.90
5382;DHT22;2714;49.852;6.564;2023-03-29T03:17:21;6.10;99.90
5382;DHT22;2714;49.852;6.564;2023-03-29T03:21:22;6.10;99.90
5382;DHT22;2714;49.852;6.564;2023-03-29T03:25:23;6.10;99.90
5382;DHT22;2714;49.852;6.564;2023-03-29T03:29:24;6.00;99.90
5382;DHT22;2714;49.852;6.564;2023-03-29T03:33:25;5.80;99.90
5382;DHT22;2714;49.852;6.564;2023-03-29T03:37:27;5.80;99.90
5382;DHT22;2714;49.852;6.564;2023-03-29T03:41:28;5.70;99.90
5382;DHT22;2714;49.852;6.564;2023-03-29T03:45:28;5.80;99.90
5382;DHT22;2714;49.852;6.564;2023-03-29T03:49:30;5.90;99.90
5382;DHT22;2714;49.852;6.564;2023-03-29T03:53:31;5.90;99.90
5382;DHT22;2714;49.852;6.564;2023-03-29T03:57:33;5.90;99.90
5382;DHT22;2714;49.852;6.564;2023-03-29T04:01:36;5.90;99.90
5382;DHT22;2714;49.852;6.564;2023-03-29T04:05:44;6.00;99.90
5382;DHT22;2714;49.852;6.564;2023-03-29T04:09:45;6.00;99.90
5382;DHT22;2714;49.852;6.564;2023-03-29T04:13:45;6.20;99.90
5382;DHT22;2714;49.852;6.564;2023-03-29T04:17:46;6.30;99.90
5382;DHT22;2714;49.852;6.564;2023-03-29T04:21:47;6.40;99.90
5382;DHT22;2714;49.852;6.564;2023-03-29T04:25:48;6.30;99.90
5382;DHT22;2714;49.852;6.564;2023-03-29T04:29:49;6.30;99.90
5382;DHT22;2714;49.852;6.564;2023-03-29T04:33:50;6.30;99.90
5382;DHT22;2714;49.852;6.564;2023-03-29T04:37:50;6.30;99.90
5382;DHT22;2714;49.852;6.564;2023-03-29T04:41:53;6.30;99.90
5382;DHT22;2714;49.852;6.564;2023-03-29T04:45:54;6.40;99.90
5382;DHT22;2714;49.852;6.564;2023-03-29T04:49:55;6.50;99.90
5382;DHT22;2714;49.852;6.564;2023-03-29T04:53:56;6.60;99.90
5382;DHT22;2714;49.852;6.564;2023-03-29T04:57:57;6.60;99.90
5382;DHT22;2714;49.852;6.564;2023-03-29T05:01:57;6.60;99.90
5382;DHT22;2714;49.852;6.564;2023-03-29T05:06:03;6.60;99.90
5382;DHT22;2714;49.852;6.564;2023-03-29T05:10:06;6.60;99.90
5382;DHT22;2714;49.852;6.564;2023-03-29T05:14:07;6.50;99.90
5382;DHT22;2714;49.852;6.564;2023-03-29T05:18:08;6.60;99.90
5382;DHT22;2714;49.852;6.564;2023-03-29T05:22:09;6.60;99.90
5382;DHT22;2714;49.852;6.564;2023-03-29T05:26:10;6.70;99.90
5382;DHT22;2714;49.852;6.564;2023-03-29T05:30:14;6.70;99.90
5382;DHT22;2714;49.852;6.564;2023-03-29T05:34:14;6.80;99.90
5382;DHT22;2714;49.852;6.564;2023-03-29T05:38:15;6.90;99.90
5382;DHT22;2714;49.852;6.564;2023-03-29T05:42:15;6.90;99.90
5382;DHT22;2714;49.852;6.564;2023-03-29T05:46:18;6.80;99.90
5382;DHT22;2714;49.852;6.564;2023-03-29T05:50:19;6.70;99.90
5382;DHT22;2714;49.852;6.564;2023-03-29T05:54:19;6.80;99.90
5382;DHT22;2714;49.852;6.564;2023-03-29T05:58:20;6.90;99.90
5382;DHT22;2714;49.852;6.564;2023-03-29T06:02:21;7.00;99.90
5382;DHT22;2714;49.852;6.564;2023-03-29T06:06:22;6.90;99.90
5382;DHT22;2714;49.852;6.564;2023-03-29T06:10:23;7.00;99.90
5382;DHT22;2714;49.852;6.564;2023-03-29T06:14:24;7.00;99.90
5382;DHT22;2714;49.852;6.564;2023-03-29T06:18:24;7.00;99.90
5382;DHT22;2714;49.852;6.564;2023-03-29T06:22:25;7.10;99.90
5382;DHT22;2714;49.852;6.564;2023-03-29T06:26:26;7.20;99.90
5382;DHT22;2714;49.852;6.564;2023-03-29T06:30:27;7.20;99.90
5382;DHT22;2714;49.852;6.564;2023-03-29T06:34:28;7.20;99.90
5382;DHT22;2714;49.852;6.564;2023-03-29T06:38:28;7.30;99.90
5382;DHT22;2714;49.852;6.564;2023-03-29T06:42:30;7.40;99.90
5382;DHT22;2714;49.852;6.564;2023-03-29T06:46:30;7.60;99.90
5382;DHT22;2714;49.852;6.564;2023-03-29T06:50:31;7.80;99.90
5382;DHT22;2714;49.852;6.564;2023-03-29T06:54:32;7.90;99.90
5382;DHT22;2714;49.852;6.564;2023-03-29T06:58:33;8.10;99.90
5382;DHT22;2714;49.852;6.564;2023-03-29T07:02:33;8.20;99.90
5382;DHT22;2714;49.852;6.564;2023-03-29T07:06:35;8.30;99.90
5382;DHT22;2714;49.852;6.564;2023-03-29T07:10:42;8.30;99.90
5382;DHT22;2714;49.852;6.564;2023-03-29T07:14:43;8.40;99.90
5382;DHT22;2714;49.852;6.564;2023-03-29T07:18:44;8.40;99.90
5382;DHT22;2714;49.852;6.564;2023-03-29T07:22:44;8.50;99.90
5382;DHT22;2714;49.852;6.564;2023-03-29T07:26:46;8.70;99.90
5382;DHT22;2714;49.852;6.564;2023-03-29T07:30:48;9.00;99.90
5382;DHT22;2714;49.852;6.564;2023-03-29T07:34:48;9.30;99.90
5382;DHT22;2714;49.852;6.564;2023-03-29T07:38:49;9.60;99.90
5382;DHT22;2714;49.852;6.564;2023-03-29T07:42:51;9.80;99.90
5382;DHT22;2714;49.852;6.564;2023-03-29T07:46:53;9.40;99.90
5382;DHT22;2714;49.852;6.564;2023-03-29T07:50:54;9.00;99.90
5382;DHT22;2714;49.852;6.564;2023-03-29T07:54:55;8.80;99.90
5382;DHT22;2714;49.852;6.564;2023-03-29T07:58:56;8.90;99.90
5382;DHT22;2714;49.852;6.564;2023-03-29T08:02:57;8.90;99.90
5382;DHT22;2714;49.852;6.564;2023-03-29T08:06:57;9.00;99.90
5382;DHT22;2714;49.852;6.564;2023-03-29T08:10:58;9.20;99.90
5382;DHT22;2714;49.852;6.564;2023-03-29T08:14:58;9.40;99.90
5382;DHT22;2714;49.852;6.564;2023-03-29T08:18:59;9.70;99.90
5382;DHT22;2714;49.852;6.564;2023-03-29T08:23:00;10.20;99.90
5382;DHT22;2714;49.852;6.564;2023-03-29T08:27:00;10.30;99.90
5382;DHT22;2714;49.852;6.564;2023-03-29T08:31:01;10.10;99.90
5382;DHT22;2714;49.852;6.564;2023-03-29T08:35:03;10.10;99.90
5382;DHT22;2714;49.852;6.564;2023-03-29T08:39:04;10.30;99.90
5382;DHT22;2714;49.852;6.564;2023-03-29T08:43:13;10.80;99.90
5382;DHT22;2714;49.852;6.564;2023-03-29T08:48:00;11.10;99.90
5382;DHT22;2714;49.852;6.564;2023-03-29T08:51:55;11.70;99.90
5382;DHT22;2714;49.852;6.564;2023-03-29T08:55:59;12.60;99.90
5382;DHT22;2714;49.852;6.564;2023-03-29T09:00:04;13.60;99.90
5382;DHT22;2714;49.852;6.564;2023-03-29T09:04:15;15.00;99.90
5382;DHT22;2714;49.852;6.564;2023-03-29T09:08:19;15.00;99.90
5382;DHT22;2714;49.852;6.564;2023-03-29T09:12:31;14.00;99.90
5382;DHT22;2714;49.852;6.564;2023-03-29T09:16:59;13.80;99.90
5382;DHT22;2714;49.852;6.564;2023-03-29T09:34:42;13.20;99.90
5382;DHT22;2714;49.852;6.564;2023-03-29T09:38:19;13.40;99.90
5382;DHT22;2714;49.852;6.564;2023-03-29T09:42:22;13.80;99.90
5382;DHT22;2714;49.852;6.564;2023-03-29T09:46:38;14.10;99.90
5382;DHT22;2714;49.852;6.564;2023-03-29T09:50:48;14.50;99.90
5382;DHT22;2714;49.852;6.564;2023-03-29T09:54:52;14.60;99.90
5382;DHT22;2714;49.852;6.564;2023-03-29T09:58:53;14.10;99.90
5382;DHT22;2714;49.852;6.564;2023-03-29T10:02:56;13.60;99.90
5382;DHT22;2714;49.852;6.564;2023-03-29T10:06:57;13.20;99.90
5382;DHT22;2714;49.852;6.564;2023-03-29T10:11:02;13.10;99.90
5382;DHT22;2714;49.852;6.564;2023-03-29T10:15:03;13.60;99.90
5382;DHT22;2714;49.852;6.564;2023-03-29T10:19:19;13.60;99.90
5382;DHT22;2714;49.852;6.564;2023-03-29T10:23:20;13.70;99.90
5382;DHT22;2714;49.852;6.564;2023-03-29T10:27:24;14.20;99.90
5382;DHT22;2714;49.852;6.564;2023-03-29T10:31:29;14.90;99.90
5382;DHT22;2714;49.852;6.564;2023-03-29T10:35:37;15.40;99.90
5382;DHT22;2714;49.852;6.564;2023-03-29T10:39:39;16.60;99.90
5382;DHT22;2714;49.852;6.564;2023-03-29T10:43:45;17.40;99.90
5382;DHT22;2714;49.852;6.564;2023-03-29T10:47:48;17.80;99.90
5382;DHT22;2714;49.852;6.564;2023-03-29T10:51:49;18.30;99.90
5382;DHT22;2714;49.852;6.564;2023-03-29T11:00:20;20.10;99.90
5382;DHT22;2714;49.852;6.564;2023-03-29T11:04:46;20.10;99.90
5382;DHT22;2714;49.852;6.564;2023-03-29T11:08:51;19.80;99.90
5382;DHT22;2714;49.852;6.564;2023-03-29T11:17:38;18.50;99.90
5382;DHT22;2714;49.852;6.564;2023-03-29T11:21:46;18.40;99.90
5382;DHT22;2714;49.852;6.564;2023-03-29T11:30:16;19.10;99.90
5382;DHT22;2714;49.852;6.564;2023-03-29T11:34:30;18.70;99.90
5382;DHT22;2714;49.852;6.564;2023-03-29T11:39:00;21.00;99.90
5382;DHT22;2714;49.852;6.564;2023-03-29T11:43:05;23.00;99.90
5382;DHT22;2714;49.852;6.564;2023-03-29T11:47:21;24.70;98.80
5382;DHT22;2714;49.852;6.564;2023-03-29T11:51:31;25.50;95.80
5382;DHT22;2714;49.852;6.564;2023-03-29T11:55:36;25.50;94.20
5382;DHT22;2714;49.852;6.564;2023-03-29T11:59:42;26.60;91.90
5382;DHT22;2714;49.852;6.564;2023-03-29T12:03:59;26.10;91.90
5382;DHT22;2714;49.852;6.564;2023-03-29T12:08:16;25.80;91.70
5382;DHT22;2714;49.852;6.564;2023-03-29T12:16:55;23.00;94.70
5382;DHT22;2714;49.852;6.564;2023-03-29T12:21:03;22.10;96.20
5382;DHT22;2714;49.852;6.564;2023-03-29T12:25:06;21.20;99.40
5382;DHT22;2714;49.852;6.564;2023-03-29T12:42:20;19.30;99.90
5382;DHT22;2714;49.852;6.564;2023-03-29T12:46:25;18.90;99.90
5382;DHT22;2714;49.852;6.564;2023-03-29T12:50:48;18.60;99.90
5382;DHT22;2714;49.852;6.564;2023-03-29T12:55:04;18.10;99.90
5382;DHT22;2714;49.852;6.564;2023-03-29T12:59:36;17.50;99.90
5382;DHT22;2714;49.852;6.564;2023-03-29T13:03:45;17.10;99.90
5382;DHT22;2714;49.852;6.564;2023-03-29T13:07:47;16.80;99.90
5382;DHT22;2714;49.852;6.564;2023-03-29T13:11:52;16.40;99.90
5382;DHT22;2714;49.852;6.564;2023-03-29T13:15:54;16.30;99.90
5382;DHT22;2714;49.852;6.564;2023-03-29T13:29:00;16.80;99.90
5382;DHT22;2714;49.852;6.564;2023-03-29T13:37:44;16.40;99.90
5382;DHT22;2714;49.852;6.564;2023-03-29T13:41:52;16.20;99.90
5382;DHT22;2714;49.852;6.564;2023-03-29T13:49:59;16.90;99.90
5382;DHT22;2714;49.852;6.564;2023-03-29T13:54:22;17.00;99.90
5382;DHT22;2714;49.852;6.564;2023-03-29T14:02:42;17.20;99.90
5382;DHT22;2714;49.852;6.564;2023-03-29T14:06:49;16.60;99.90
5382;DHT22;2714;49.852;6.564;2023-03-29T14:10:52;16.60;99.90
5382;DHT22;2714;49.852;6.564;2023-03-29T14:14:59;16.90;99.90
5382;DHT22;2714;49.852;6.564;2023-03-29T14:19:14;16.90;99.90
5382;DHT22;2714;49.852;6.564;2023-03-29T14:23:21;16.80;99.90
5382;DHT22;2714;49.852;6.564;2023-03-29T14:27:22;16.50;99.90
5382;DHT22;2714;49.852;6.564;2023-03-29T14:31:25;16.40;99.90
5382;DHT22;2714;49.852;6.564;2023-03-29T14:35:31;16.30;99.90
5382;DHT22;2714;49.852;6.564;2023-03-29T14:39:33;15.90;99.90
5382;DHT22;2714;49.852;6.564;2023-03-29T14:43:34;15.80;99.90
5382;DHT22;2714;49.852;6.564;2023-03-29T14:47:35;15.70;99.90
5382;DHT22;2714;49.852;6.564;2023-03-29T14:51:37;15.70;99.90
5382;DHT22;2714;49.852;6.564;2023-03-29T14:55:47;16.20;99.90
5382;DHT22;2714;49.852;6.564;2023-03-29T15:00:02;16.50;99.90
5382;DHT22;2714;49.852;6.564;2023-03-29T15:04:08;16.50;99.90
5382;DHT22;2714;49.852;6.564;2023-03-29T15:08:34;16.30;99.90
5382;DHT22;2714;49.852;6.564;2023-03-29T15:12:36;16.30;99.90
5382;DHT22;2714;49.852;6.564;2023-03-29T15:16:42;16.40;99.90
5382;DHT22;2714;49.852;6.564;2023-03-29T15:20:44;16.40;99.90
5382;DHT22;2714;49.852;6.564;2023-03-29T15:24:47;16.50;99.90
5382;DHT22;2714;49.852;6.564;2023-03-29T15:28:50;16.60;99.90
5382;DHT22;2714;49.852;6.564;2023-03-29T15:32:54;16.90;99.90
5382;DHT22;2714;49.852;6.564;2023-03-29T15:36:55;16.90;99.90
5382;DHT22;2714;49.852;6.564;2023-03-29T15:40:59;16.90;99.90
5382;DHT22;2714;49.852;6.564;2023-03-29T15:45:02;16.90;99.90
5382;DHT22;2714;49.852;6.564;2023-03-29T15:49:04;16.80;99.90
5382;DHT22;2714;49.852;6.564;2023-03-29T15:53:04;16.70;99.90
5382;DHT22;2714;49.852;6.564;2023-03-29T15:57:08;16.60;99.90
5382;DHT22;2714;49.852;6.564;2023-03-29T16:01:28;16.60;99.90
5382;DHT22;2714;49.852;6.564;2023-03-29T16:05:33;16.60;99.90
5382;DHT22;2714;49.852;6.564;2023-03-29T16:09:33;16.50;99.90
5382;DHT22;2714;49.852;6.564;2023-03-29T16:13:34;16.40;99.90
5382;DHT22;2714;49.852;6.564;2023-03-29T16:17:34;16.50;99.90
5382;DHT22;2714;49.852;6.564;2023-03-29T16:21:35;16.40;99.90
5382;DHT22;2714;49.852;6.564;2023-03-29T16:25:38;16.20;99.90
5382;DHT22;2714;49.852;6.564;2023-03-29T16:29:39;16.20;99.90
5382;DHT22;2714;49.852;6.564;2023-03-29T16:33:40;16.20;99.90
5382;DHT22;2714;49.852;6.564;2023-03-29T16:37:41;16.10;99.90
5382;DHT22;2714;49.852;6.564;2023-03-29T16:41:41;16.10;99.90
5382;DHT22;2714;49.852;6.564;2023-03-29T16:45:42;16.00;99.90
5382;DHT22;2714;49.852;6.564;2023-03-29T16:49:43;15.80;99.90
5382;DHT22;2714;49.852;6.564;2023-03-29T16:53:47;15.80;99.90
5382;DHT22;2714;49.852;6.564;2023-03-29T16:57:48;15.80;99.90
5382;DHT22;2714;49.852;6.564;2023-03-29T17:01:50;15.80;99.90
5382;DHT22;2714;49.852;6.564;2023-03-29T17:05:52;15.70;99.90
5382;DHT22;2714;49.852;6.564;2023-03-29T17:09:53;15.70;99.90
5382;DHT22;2714;49.852;6.564;2023-03-29T17:13:53;15.50;99.90
5382;DHT22;2714;49.852;6.564;2023-03-29T17:17:54;15.30;99.90
5382;DHT22;2714;49.852;6.564;2023-03-29T17:21:54;15.00;99.90
5382;DHT22;2714;49.852;6.564;2023-03-29T17:25:56;14.80;99.90
5382;DHT22;2714;49.852;6.564;2023-03-29T17:29:56;14.70;99.90
5382;DHT22;2714;49.852;6.564;2023-03-29T17:33:57;14.50;99.90
5382;DHT22;2714;49.852;6.564;2023-03-29T17:37:58;14.50;99.90
5382;DHT22;2714;49.852;6.564;2023-03-29T17:41:59;14.40;99.90
5382;DHT22;2714;49.852;6.564;2023-03-29T17:46:00;14.50;99.90
5382;DHT22;2714;49.852;6.564;2023-03-29T17:50:00;14.40;99.90
5382;DHT22;2714;49.852;6.564;2023-03-29T17:54:01;14.30;99.90
5382;DHT22;2714;49.852;6.564;2023-03-29T17:58:02;14.20;99.90
5382;DHT22;2714;49.852;6.564;2023-03-29T18:02:03;14.10;99.90
5382;DHT22;2714;49.852;6.564;2023-03-29T18:06:07;13.80;99.90
5382;DHT22;2714;49.852;6.564;2023-03-29T18:10:08;13.50;99.90
5382;DHT22;2714;49.852;6.564;2023-03-29T18:14:09;13.30;99.90
5382;DHT22;2714;49.852;6.564;2023-03-29T18:18:10;13.10;99.90
5382;DHT22;2714;49.852;6.564;2023-03-29T18:22:10;13.00;99.90
5382;DHT22;2714;49.852;6.564;2023-03-29T18:26:12;13.00;99.90
5382;DHT22;2714;49.852;6.564;2023-03-29T18:30:14;13.00;99.90
5382;DHT22;2714;49.852;6.564;2023-03-29T18:34:16;13.00;99.90
5382;DHT22;2714;49.852;6.564;2023-03-29T18:38:18;13.00;99.90
5382;DHT22;2714;49.852;6.564;2023-03-29T18:42:19;13.00;99.90
5382;DHT22;2714;49.852;6.564;2023-03-29T18:46:21;13.00;99.90
5382;DHT22;2714;49.852;6.564;2023-03-29T18:50:21;12.90;99.90
5382;DHT22;2714;49.852;6.564;2023-03-29T18:54:22;12.80;99.90
5382;DHT22;2714;49.852;6.564;2023-03-29T18:58:23;12.80;99.90
5382;DHT22;2714;49.852;6.564;2023-03-29T19:02:23;12.70;99.90
5382;DHT22;2714;49.852;6.564;2023-03-29T19:06:24;12.80;99.90
5382;DHT22;2714;49.852;6.564;2023-03-29T19:10:25;12.90;99.90
5382;DHT22;2714;49.852;6.564;2023-03-29T19:14:26;13.00;99.90
5382;DHT22;2714;49.852;6.564;2023-03-29T19:18:28;13.10;99.90
5382;DHT22;2714;49.852;6.564;2023-03-29T19:22:29;13.20;99.90
5382;DHT22;2714;49.852;6.564;2023-03-29T19:26:29;13.20;99.90
5382;DHT22;2714;49.852;6.564;2023-03-29T19:30:34;13.30;99.90
5382;DHT22;2714;49.852;6.564;2023-03-29T19:34:35;13.40;99.90
5382;DHT22;2714;49.852;6.564;2023-03-29T19:38:35;13.40;99.90
5382;DHT22;2714;49.852;6.564;2023-03-29T19:42:37;13.40;99.90
5382;DHT22;2714;49.852;6.564;2023-03-29T19:46:38;13.50;99.90
5382;DHT22;2714;49.852;6.564;2023-03-29T19:50:40;13.40;99.90
5382;DHT22;2714;49.852;6.564;2023-03-29T19:54:41;13.40;99.90
5382;DHT22;2714;49.852;6.564;2023-03-29T19:58:41;13.30;99.90
5382;DHT22;2714;49.852;6.564;2023-03-29T20:02:42;13.30;99.90
5382;DHT22;2714;49.852;6.564;2023-03-29T20:06:43;13.30;99.90
5382;DHT22;2714;49.852;6.564;2023-03-29T20:10:44;13.30;99.90
5382;DHT22;2714;49.852;6.564;2023-03-29T20:14:44;13.30;99.90
5382;DHT22;2714;49.852;6.564;2023-03-29T20:18:45;13.30;99.90
5382;DHT22;2714;49.852;6.564;2023-03-29T20:22:46;13.20;99.90
5382;DHT22;2714;49.852;6.564;2023-03-29T20:26:47;13.20;99.90
5382;DHT22;2714;49.852;6.564;2023-03-29T20:30:48;13.10;99.90
5382;DHT22;2714;49.852;6.564;2023-03-29T20:34:50;13.00;99.90
5382;DHT22;2714;49.852;6.564;2023-03-29T20:38:51;13.00;99.90
5382;DHT22;2714;49.852;6.564;2023-03-29T20:42:54;12.90;99.90
5382;DHT22;2714;49.852;6.564;2023-03-29T20:46:55;12.90;99.90
5382;DHT22;2714;49.852;6.564;2023-03-29T20:51:02;12.90;99.90
5382;DHT22;2714;49.852;6.564;2023-03-29T20:55:10;12.90;99.90
5382;DHT22;2714;49.852;6.564;2023-03-29T20:59:21;12.80;99.90
5382;DHT22;2714;49.852;6.564;2023-03-29T21:03:22;12.90;99.90
5382;DHT22;2714;49.852;6.564;2023-03-29T21:07:22;12.70;99.90
5382;DHT22;2714;49.852;6.564;2023-03-29T21:11:23;12.70;99.90
5382;DHT22;2714;49.852;6.564;2023-03-29T21:15:23;12.70;99.90
5382;DHT22;2714;49.852;6.564;2023-03-29T21:19:24;12.70;99.90
5382;DHT22;2714;49.852;6.564;2023-03-29T21:23:25;12.70;99.90
5382;DHT22;2714;49.852;6.564;2023-03-29T21:27:25;12.80;99.90
5382;DHT22;2714;49.852;6.564;2023-03-29T21:31:26;12.80;99.90
5382;DHT22;2714;49.852;6.564;2023-03-29T21:35:27;12.80;99.90
5382;DHT22;2714;49.852;6.564;2023-03-29T21:39:27;12.80;99.90
5382;DHT22;2714;49.852;6.564;2023-03-29T21:43:28;12.80;99.90
5382;DHT22;2714;49.852;6.564;2023-03-29T21:47:29;12.80;99.90
5382;DHT22;2714;49.852;6.564;2023-03-29T21:51:29;12.90;99.90
5382;DHT22;2714;49.852;6.564;2023-03-29T21:55:32;13.00;99.90
5382;DHT22;2714;49.852;6.564;2023-03-29T21:59:35;13.10;99.90
5382;DHT22;2714;49.852;6.564;2023-03-29T22:03:36;13.20;99.90
5382;DHT22;2714;49.852;6.564;2023-03-29T22:07:37;13.10;99.90
5382;DHT22;2714;49.852;6.564;2023-03-29T22:11:38;13.10;99.90
5382;DHT22;2714;49.852;6.564;2023-03-29T22:15:38;13.10;99.90
5382;DHT22;2714;49.852;6.564;2023-03-29T22:19:39;13.10;99.90
5382;DHT22;2714;49.852;6.564;2023-03-29T22:23:42;13.10;99.90
5382;DHT22;2714;49.852;6.564;2023-03-29T22:27:44;13.00;99.90
5382;DHT22;2714;49.852;6.564;2023-03-29T22:31:45;13.10;99.90
5382;DHT22;2714;49.852;6.564;2023-03-29T22:35:46;13.20;99.90
5382;DHT22;2714;49.852;6.564;2023-03-29T22:39:47;13.30;99.90
5382;DHT22;2714;49.852;6.564;2023-03-29T22:43:52;13.30;99.90
5382;DHT22;2714;49.852;6.564;2023-03-29T22:47:53;13.20;99.90
5382;DHT22;2714;49.852;6.564;2023-03-29T22:51:53;13.20;99.90
5382;DHT22;2714;49.852;6.564;2023-03-29T22:55:54;13.10;99.90
5382;DHT22;2714;49.852;6.564;2023-03-29T22:59:55;13.20;99.90
5382;DHT22;2714;49.852;6.564;2023-03-29T23:03:55;13.10;99.90
5382;DHT22;2714;49.852;6.564;2023-03-29T23:07:56;13.10;99.90
5382;DHT22;2714;49.852;6.564;2023-03-29T23:11:56;13.00;99.90
5382;DHT22;2714;49.852;6.564;2023-03-29T23:15:58;12.90;99.90
5382;DHT22;2714;49.852;6.564;2023-03-29T23:20:00;12.90;99.90
5382;DHT22;2714;49.852;6.564;2023-03-29T23:24:01;12.90;99.90
5382;DHT22;2714;49.852;6.564;2023-03-29T23:28:02;12.80;99.90
5382;DHT22;2714;49.852;6.564;2023-03-29T23:32:03;12.80;99.90
5382;DHT22;2714;49.852;6.564;2023-03-29T23:36:06;12.70;99.90
5382;DHT22;2714;49.852;6.564;2023-03-29T23:40:08;12.60;99.90
5382;DHT22;2714;49.852;6.564;2023-03-29T23:44:14;12.70;99.90
5382;DHT22;2714;49.852;6.564;2023-03-29T23:48:15;12.70;99.90
5382;DHT22;2714;49.852;6.564;2023-03-29T23:52:16;12.80;99.90
5382;DHT22;2714;49.852;6.564;2023-03-29T23:56:16;12.70;99.90
